Aviation Digital Data Service (ADDS)

Output produced by METARs form (0319 UTC 31 July 2014)
found at http://aviationweather.gov/adds/metars/
 
KBHB 310044Z 3101/3124 VRB03KT P6SM VCFG OVC006 
     FM310200 VRB03KT 1SM BR OVC002 
     FM310400 22004KT 1/2SM FG VV001 
     FM311200 21004KT P6SM SCT250 AMD LTD TO CLD VIS AND WIND